Time;durP1;ratioP1;P1;durP2;ratioP2;P2;SDS_P1;SDS_P2;PMS_P1;PMS_P2;Temp;Humidity;BMP_temperature;BMP_pressure;BME280_temperature;BME280_humidity;BME280_pressure;Samples;Min_cycle;Max_cycle;Signal;HPM_P1;HPM_P2
2022/12/23 00:00:16;;;;;;;;;2.33;1.67;;;;;14.94;74.73;100344.84;5052685;28;45188;-68
2022/12/23 00:02:41;;;;;;;;;2.67;2.00;;;;;14.97;75.38;100347.56;5057670;28;44917;-67
2022/12/23 00:05:07;;;;;;;;;1.00;1.00;;;;;14.96;74.81;100342.16;5057807;28;45373;-61
2022/12/23 00:07:33;;;;;;;;;11.00;3.00;;;;;14.88;74.79;100321.53;5058262;28;44930;-68
2022/12/23 00:09:58;;;;;;;;;3.33;2.00;;;;;15.03;74.77;100350.25;5051051;28;45308;-63
2022/12/23 00:15:08;;;;;;;;;1.00;1.00;;;;;15.03;74.81;100360.09;5055480;28;45192;-66
2022/12/23 00:17:36;;;;;;;;;1.00;1.00;;;;;14.83;74.66;100319.72;5058123;28;44880;-63
2022/12/23 00:20:03;;;;;;;;;2.00;2.00;;;;;15.07;74.94;100351.16;5052199;28;45012;-70
2022/12/23 00:25:13;;;;;;;;;0.00;0.00;;;;;15.02;75.56;100359.22;5058380;28;44995;-65
2022/12/23 00:27:38;;;;;;;;;2.00;1.00;;;;;14.93;76.23;100349.34;5055741;28;44935;-65
2022/12/23 00:30:07;;;;;;;;;2.00;2.00;;;;;14.79;76.45;100343.03;5051677;28;45247;-67
2022/12/23 00:32:32;;;;;;;;;1.00;1.00;;;;;14.75;77.05;100335.88;5053595;28;45119;-68
2022/12/23 00:34:57;;;;;;;;;4.00;1.00;;;;;14.69;77.67;100342.09;5053180;28;47355;-66
2022/12/23 00:37:23;;;;;;;;;1.33;1.00;;;;;14.71;77.40;100344.78;5053967;28;45127;-68
2022/12/23 00:42:53;;;;;;;;;1.00;1.00;;;;;14.70;78.07;100329.53;5050714;28;46269;-66
2022/12/23 00:45:18;;;;;;;;;2.00;2.00;;;;;14.74;77.97;100326.00;5053139;28;46340;-64
2022/12/23 00:50:31;;;;;;;;;2.67;1.00;;;;;14.93;77.84;100354.72;5045867;28;45089;-67
2022/12/23 00:52:56;;;;;;;;;1.00;1.00;;;;;14.97;77.58;100357.44;5051457;28;45310;-67
2022/12/23 00:55:22;;;;;;;;;4.67;4.67;;;;;14.95;77.63;100359.19;5048920;28;47557;-69
2022/12/23 00:57:47;;;;;;;;;2.00;2.00;;;;;14.86;77.13;100342.13;5051777;28;45002;-61
2022/12/23 01:00:13;;;;;;;;;0.67;0.33;;;;;14.85;77.06;100343.06;5047873;28;45307;-67
2022/12/23 01:05:37;;;;;;;;;0.00;0.00;;;;;15.00;77.70;100379.84;5051277;28;45184;-59
2022/12/23 01:08:08;;;;;;;;;1.00;1.00;;;;;14.99;78.12;100387.91;5049092;28;44963;-63
2022/12/23 01:10:36;;;;;;;;;2.00;1.00;;;;;14.92;78.37;100368.16;5049041;28;45513;-67
2022/12/23 01:13:01;;;;;;;;;1.00;1.00;;;;;14.95;79.01;100378.03;5049625;28;45085;-65
2022/12/23 01:15:27;;;;;;;;;3.00;1.00;;;;;15.04;78.57;100392.41;5051267;28;45810;-62
2022/12/23 01:17:52;;;;;;;;;1.00;1.00;;;;;15.05;79.03;100385.25;5043479;28;45383;-62
2022/12/23 01:20:17;;;;;;;;;3.00;1.33;;;;;15.01;79.46;100386.13;5051116;28;45170;-63
2022/12/23 01:22:43;;;;;;;;;1.33;1.33;;;;;14.87;79.59;100356.50;5045377;28;44939;-67
2022/12/23 01:25:08;;;;;;;;;1.00;1.00;;;;;14.98;79.77;100378.94;5051407;28;52438;-64
2022/12/23 01:27:34;;;;;;;;;1.00;1.00;;;;;15.04;79.93;100386.13;5049996;28;45025;-62
2022/12/23 01:29:59;;;;;;;;;0.67;0.00;;;;;15.03;79.80;100390.63;5044732;28;44995;-67
2022/12/23 01:32:24;;;;;;;;;0.00;0.00;;;;;14.95;79.65;100378.94;5033256;28;44912;-66
2022/12/23 01:34:49;;;;;;;;;3.00;1.00;;;;;15.04;79.83;100391.50;5050502;28;45485;-66
2022/12/23 01:37:15;;;;;;;;;0.00;0.00;;;;;15.02;80.13;100396.88;5031282;28;45240;-68
2022/12/23 01:39:40;;;;;;;;;0.00;0.00;;;;;15.01;80.32;100400.44;5050714;28;45005;-67
2022/12/23 01:45:23;;;;;;;;;0.00;0.00;;;;;15.00;80.35;100392.41;5049941;28;45139;-65
2022/12/23 01:47:56;;;;;;;;;0.67;0.67;;;;;15.02;80.78;100391.50;5040873;28;45182;-64
2022/12/23 01:50:44;;;;;;;;;0.00;0.00;;;;;15.06;80.63;100393.31;5045272;28;45112;-65
2022/12/23 01:53:30;;;;;;;;;0.00;0.00;;;;;14.99;80.20;100377.16;5053414;28;45195;-68
2022/12/23 01:56:01;;;;;;;;;1.00;1.00;;;;;14.95;80.66;100368.19;5050127;28;45498;-65
2022/12/23 01:58:35;;;;;;;;;4.00;4.00;;;;;15.07;80.55;100399.59;5049677;28;45074;-67
2022/12/23 02:03:47;;;;;;;;;3.00;2.00;;;;;14.99;80.41;100386.09;5046218;28;45408;-63
2022/12/23 02:09:39;;;;;;;;;3.67;2.67;;;;;15.02;80.83;100398.69;5049576;28;44951;-61
2022/12/23 02:12:16;;;;;;;;;5.33;5.33;;;;;15.07;80.57;100403.16;5006756;28;45233;-62
2022/12/23 02:17:43;;;;;;;;;2.67;2.67;;;;;15.06;80.29;100400.47;5043885;28;45097;-60
2022/12/23 02:20:45;;;;;;;;;2.00;2.00;;;;;15.05;80.23;100396.00;5047195;28;45256;-64
2022/12/23 02:23:29;;;;;;;;;26.50;24.25;;;;;15.05;80.04;100390.63;5044740;28;45156;-63
2022/12/23 02:26:13;;;;;;;;;5.00;4.00;;;;;15.05;80.18;100390.63;5052334;28;45529;-60
2022/12/23 02:29:02;;;;;;;;;2.00;1.00;;;;;15.03;80.16;100377.16;5050939;28;45751;-64
2022/12/23 02:31:49;;;;;;;;;1.00;1.00;;;;;15.03;80.00;100377.16;5046448;28;44997;-63
2022/12/23 02:34:29;;;;;;;;;1.00;1.00;;;;;15.02;79.72;100386.13;5052315;28;45215;-60
2022/12/23 02:37:06;;;;;;;;;1.33;1.33;;;;;15.01;79.74;100381.63;5051666;28;44954;-63
2022/12/23 02:39:37;;;;;;;;;1.00;1.00;;;;;15.02;79.48;100379.84;5047593;28;45837;-62
2022/12/23 02:42:10;;;;;;;;;1.33;1.00;;;;;14.99;78.95;100379.84;5049597;28;44974;-62
2022/12/23 02:44:53;;;;;;;;;1.00;0.33;;;;;14.95;78.68;100373.56;5046708;28;45102;-62
2022/12/23 02:47:23;;;;;;;;;1.67;1.67;;;;;14.92;78.21;100358.31;5052532;28;45056;-61
2022/12/23 02:49:54;;;;;;;;;5.33;2.00;;;;;15.00;78.13;100374.47;5052642;28;46078;-63
2022/12/23 02:52:25;;;;;;;;;2.00;1.00;;;;;14.97;78.01;100360.13;5049057;28;45037;-61
2022/12/23 02:54:56;;;;;;;;;1.00;1.00;;;;;14.99;77.84;100369.09;5046783;28;45218;-62
2022/12/23 02:57:31;;;;;;;;;1.00;1.00;;;;;14.98;77.62;100369.97;5047170;28;45155;-60
2022/12/23 02:59:59;;;;;;;;;1.33;1.33;;;;;14.97;77.67;100373.56;5046545;28;45296;-61
2022/12/23 03:02:24;;;;;;;;;1.33;1.33;;;;;14.99;77.04;100372.66;5049844;28;45060;-64
2022/12/23 03:04:49;;;;;;;;;1.00;1.00;;;;;15.03;77.18;100387.00;5047286;28;45025;-64
2022/12/23 03:07:19;;;;;;;;;4.00;0.67;;;;;15.02;76.87;100385.22;5052319;28;45143;-62
2022/12/23 03:10:21;;;;;;;;;1.00;1.00;;;;;15.01;76.86;100391.50;5049920;28;47913;-61
2022/12/23 03:13:12;;;;;;;;;2.00;1.67;;;;;15.00;76.79;100377.16;5044327;28;45399;-63
2022/12/23 03:15:43;;;;;;;;;1.00;0.00;;;;;14.99;76.66;100382.53;5014205;28;45198;-63
2022/12/23 03:18:41;;;;;;;;;1.00;0.00;;;;;14.97;76.47;100371.75;5046132;28;45203;-64
2022/12/23 03:21:18;;;;;;;;;1.33;1.33;;;;;14.79;76.30;100332.28;5015861;28;45284;-65
2022/12/23 03:23:53;;;;;;;;;0.67;0.67;;;;;14.96;76.03;100352.94;5051488;28;44950;-64
2022/12/23 03:26:26;;;;;;;;;0.00;0.00;;;;;14.97;76.27;100368.19;5050994;28;45173;-63
2022/12/23 03:29:04;;;;;;;;;0.00;0.00;;;;;14.88;75.93;100355.59;5051475;28;45061;-65
2022/12/23 03:31:33;;;;;;;;;2.00;1.00;;;;;14.95;76.02;100365.50;5044501;28;45182;-60
2022/12/23 03:34:05;;;;;;;;;0.00;0.00;;;;;14.96;75.68;100363.69;5030370;28;45119;-60
2022/12/23 03:36:40;;;;;;;;;1.00;1.00;;;;;14.95;75.91;100361.88;5052131;28;44955;-63
2022/12/23 03:39:12;;;;;;;;;1.67;0.33;;;;;14.88;75.93;100355.59;5050189;28;45288;-62
2022/12/23 03:41:45;;;;;;;;;0.00;0.00;;;;;14.89;75.94;100365.47;5049350;28;45533;-62
2022/12/23 03:44:25;;;;;;;;;1.00;0.33;;;;;14.87;76.04;100376.22;5032030;28;45125;-63
2022/12/23 03:47:08;;;;;;;;;1.00;0.00;;;;;14.82;76.04;100361.88;5049643;28;45470;-61
2022/12/23 03:49:42;;;;;;;;;7.67;1.00;;;;;14.85;75.77;100353.81;5046480;28;45283;-65
2022/12/23 03:52:19;;;;;;;;;1.00;1.00;;;;;14.90;75.86;100364.59;5049371;28;45510;-62
2022/12/23 03:54:52;;;;;;;;;2.00;1.00;;;;;14.89;75.63;100369.03;5048333;28;45051;-64
2022/12/23 03:57:21;;;;;;;;;3.00;1.00;;;;;14.74;75.97;100339.44;5045413;28;45024;-60
2022/12/23 03:59:52;;;;;;;;;3.00;1.00;;;;;14.93;75.82;100375.31;5048685;28;45260;-63
2022/12/23 04:02:25;;;;;;;;;2.00;2.00;;;;;14.93;75.43;100376.25;5046093;28;45601;-62
2022/12/23 04:04:54;;;;;;;;;1.00;1.00;;;;;14.92;75.60;100373.56;5048683;28;45018;-59
2022/12/23 04:07:24;;;;;;;;;0.33;0.33;;;;;14.90;75.96;100361.91;5048757;28;44922;-61
2022/12/23 04:09:53;;;;;;;;;0.67;0.67;;;;;14.89;75.84;100358.28;5049084;28;45073;-61
2022/12/23 04:12:22;;;;;;;;;1.00;1.00;;;;;14.90;75.78;100343.06;5053253;28;45344;-60
2022/12/23 04:14:50;;;;;;;;;1.00;1.00;;;;;14.90;75.83;100346.66;5054023;28;45183;-60
2022/12/23 04:17:16;;;;;;;;;4.33;2.33;;;;;14.85;75.70;100336.75;5054661;28;45170;-60
2022/12/23 04:19:44;;;;;;;;;1.00;1.00;;;;;14.56;75.38;100300.81;5050991;28;45253;-61
2022/12/23 04:22:10;;;;;;;;;3.67;1.00;;;;;14.78;76.03;100332.25;5053570;28;45673;-62
2022/12/23 04:24:35;;;;;;;;;0.00;0.00;;;;;14.72;76.27;100334.06;5052779;28;45114;-61
2022/12/23 04:27:01;;;;;;;;;0.67;0.67;;;;;14.67;76.33;100337.63;5052907;28;44975;-62
2022/12/23 04:29:26;;;;;;;;;1.00;1.00;;;;;14.78;76.47;100369.91;5051279;28;45022;-63
2022/12/23 04:31:51;;;;;;;;;1.00;0.67;;;;;14.76;76.62;100367.22;5050762;28;45396;-61
2022/12/23 04:34:17;;;;;;;;;3.00;2.00;;;;;14.70;76.58;100354.66;5049682;28;45230;-60
2022/12/23 04:36:42;;;;;;;;;0.33;0.33;;;;;14.67;76.66;100351.06;5047378;28;45216;-60
2022/12/23 04:39:08;;;;;;;;;5.00;1.00;;;;;14.65;76.64;100337.63;5051831;28;45030;-61
2022/12/23 04:41:33;;;;;;;;;4.33;2.00;;;;;14.74;76.86;100358.25;5052603;28;46186;-62
2022/12/23 04:43:59;;;;;;;;;4.00;1.00;;;;;14.66;77.35;100347.47;5052350;28;45105;-62
2022/12/23 04:46:24;;;;;;;;;1.00;1.00;;;;;14.63;77.05;100333.13;5049381;28;45108;-60
2022/12/23 04:48:49;;;;;;;;;2.67;1.00;;;;;14.69;77.17;100341.22;5050899;28;45291;-62
2022/12/23 04:51:14;;;;;;;;;4.00;1.00;;;;;14.72;77.05;100342.13;5050423;28;45627;-60
2022/12/23 04:53:40;;;;;;;;;2.00;1.00;;;;;14.73;77.07;100343.00;5046966;28;45195;-61
2022/12/23 04:56:06;;;;;;;;;2.00;2.00;;;;;14.65;77.05;100325.94;5051574;28;45359;-65
2022/12/23 04:58:31;;;;;;;;;4.00;2.67;;;;;14.74;77.37;100324.19;5046881;28;45209;-62
2022/12/23 05:01:02;;;;;;;;;4.33;1.67;;;;;14.73;77.21;100319.72;5046341;28;46512;-61
2022/12/23 05:03:27;;;;;;;;;7.00;3.67;;;;;14.85;76.99;100334.06;5051996;28;45097;-62
2022/12/23 05:05:52;;;;;;;;;2.00;1.00;;;;;14.88;77.10;100331.38;5046157;28;45425;-61
2022/12/23 05:08:18;;;;;;;;;1.67;1.00;;;;;14.86;76.97;100322.41;5046532;28;45481;-63
2022/12/23 05:10:44;;;;;;;;;4.33;1.67;;;;;14.85;77.04;100334.06;5041144;28;45984;-62
2022/12/23 05:13:09;;;;;;;;;1.00;1.00;;;;;14.82;76.37;100310.75;5044737;28;45024;-63
2022/12/23 05:15:34;;;;;;;;;2.00;2.00;;;;;14.89;76.92;100322.44;5052547;28;45073;-62
2022/12/23 05:18:00;;;;;;;;;2.00;2.00;;;;;15.00;76.56;100342.19;5045593;28;45164;-63
2022/12/23 05:20:25;;;;;;;;;4.00;1.00;;;;;15.01;76.54;100337.69;5052802;28;62822;-63
2022/12/23 05:22:50;;;;;;;;;2.00;1.00;;;;;14.90;76.61;100300.91;5050956;28;45104;-60
2022/12/23 05:25:16;;;;;;;;;4.67;3.33;;;;;15.04;76.84;100318.88;5032688;28;45256;-62
2022/12/23 05:27:41;;;;;;;;;2.00;2.00;;;;;15.04;76.33;100321.56;5048733;28;45183;-62
2022/12/23 05:30:07;;;;;;;;;2.00;2.00;;;;;15.05;77.12;100331.44;5051105;28;49613;-61
2022/12/23 05:32:32;;;;;;;;;1.00;1.00;;;;;14.99;76.67;100309.91;5050783;28;45251;-67
2022/12/23 05:34:57;;;;;;;;;1.33;1.33;;;;;15.05;77.06;100323.38;5048210;28;44847;-62
2022/12/23 05:37:23;;;;;;;;;1.00;1.00;;;;;14.92;77.06;100293.75;5050735;28;46344;-66
2022/12/23 05:39:48;;;;;;;;;2.33;1.00;;;;;15.01;77.09;100318.84;5049728;28;53139;-64
2022/12/23 05:42:18;;;;;;;;;1.00;1.00;;;;;15.06;77.05;100325.13;5047689;28;45002;-67
2022/12/23 05:44:43;;;;;;;;;2.00;1.00;;;;;14.83;77.36;100274.00;5045580;28;45092;-63
2022/12/23 05:47:09;;;;;;;;;3.33;1.00;;;;;14.97;77.70;100298.25;5049735;28;45243;-61
2022/12/23 05:49:34;;;;;;;;;2.00;2.00;;;;;15.00;77.91;100298.25;5052074;28;45341;-63
2022/12/23 05:51:59;;;;;;;;;1.00;1.00;;;;;14.99;77.70;100291.06;5047206;28;45183;-62
2022/12/23 05:54:24;;;;;;;;;0.00;0.00;;;;;15.02;77.81;100297.34;5051154;28;45219;-62
2022/12/23 05:56:50;;;;;;;;;0.33;0.00;;;;;15.02;78.41;100291.97;5046611;28;45274;-62
2022/12/23 05:59:15;;;;;;;;;1.00;0.00;;;;;14.92;78.52;100282.97;5045262;28;54804;-63
2022/12/23 06:01:41;;;;;;;;;1.33;0.67;;;;;14.88;78.79;100272.22;5048370;28;45266;-62
2022/12/23 06:04:06;;;;;;;;;0.33;0.33;;;;;14.98;79.02;100287.50;5050197;28;45115;-61
2022/12/23 06:06:31;;;;;;;;;2.33;1.00;;;;;14.91;78.84;100280.28;5049042;28;45093;-61
2022/12/23 06:08:57;;;;;;;;;4.33;3.33;;;;;15.03;79.17;100292.84;5048792;28;45575;-60
2022/12/23 06:11:22;;;;;;;;;3.00;2.00;;;;;15.06;79.38;100299.16;5048526;28;44892;-63
2022/12/23 06:13:47;;;;;;;;;1.00;1.00;;;;;14.90;79.18;100275.81;5030061;28;45065;-62
2022/12/23 06:16:12;;;;;;;;;5.67;1.33;;;;;14.56;79.47;100208.50;5050986;28;45085;-64
2022/12/23 06:18:38;;;;;;;;;2.00;2.00;;;;;15.06;79.50;100291.09;5050721;28;46055;-62
2022/12/23 06:21:03;;;;;;;;;1.00;1.00;;;;;15.06;79.60;100279.41;5047370;28;57187;-61
2022/12/23 06:23:29;;;;;;;;;0.67;0.67;;;;;14.95;79.83;100276.72;5051453;28;45062;-61
2022/12/23 06:25:59;;;;;;;;;3.67;3.00;;;;;15.03;80.08;100301.84;5049666;28;45118;-62
2022/12/23 06:28:24;;;;;;;;;2.67;1.00;;;;;14.90;79.80;100271.34;5030455;28;46184;-62
2022/12/23 06:30:54;;;;;;;;;3.00;1.00;;;;;15.02;79.65;100299.16;5049358;28;45221;-63
2022/12/23 06:33:20;;;;;;;;;2.00;2.00;;;;;14.96;80.10;100286.56;5046811;28;45010;-61
2022/12/23 06:35:45;;;;;;;;;4.00;3.00;;;;;15.01;80.46;100295.53;5044539;28;45636;-62
2022/12/23 06:38:11;;;;;;;;;4.67;3.00;;;;;15.01;80.23;100283.88;5050895;28;45238;-60
2022/12/23 06:40:36;;;;;;;;;2.00;1.00;;;;;15.03;80.35;100268.63;5031662;28;48553;-62
2022/12/23 06:43:02;;;;;;;;;1.00;1.00;;;;;14.91;80.16;100240.88;5045448;28;44974;-64
2022/12/23 06:45:27;;;;;;;;;1.67;1.67;;;;;15.03;80.39;100269.56;5050294;28;45171;-60
2022/12/23 06:47:52;;;;;;;;;0.00;0.00;;;;;14.91;80.37;100242.63;5049732;28;47079;-61
2022/12/23 06:50:18;;;;;;;;;2.00;0.00;;;;;15.05;80.20;100265.06;5048449;28;45444;-61
2022/12/23 06:52:44;;;;;;;;;2.00;1.00;;;;;15.06;80.12;100263.25;5047411;28;45085;-63
2022/12/23 06:55:09;;;;;;;;;0.67;0.67;;;;;15.07;79.89;100260.56;5050162;28;45132;-61
2022/12/23 06:57:35;;;;;;;;;2.00;0.67;;;;;15.06;79.77;100252.50;5050519;28;46310;-62
2022/12/23 07:00:01;;;;;;;;;3.00;0.00;;;;;15.04;80.22;100243.53;5052032;28;45098;-61
2022/12/23 07:02:26;;;;;;;;;1.00;1.00;;;;;15.01;79.98;100239.03;5051430;28;45031;-61
2022/12/23 07:04:52;;;;;;;;;1.00;0.00;;;;;15.03;79.73;100225.59;5051985;28;45352;-61
2022/12/23 07:07:17;;;;;;;;;3.00;1.00;;;;;15.08;79.83;100238.16;5047577;28;46030;-62
2022/12/23 07:09:43;;;;;;;;;1.00;1.00;;;;;14.98;79.93;100217.56;5051547;28;44904;-63
2022/12/23 07:12:08;;;;;;;;;3.67;3.67;;;;;15.02;79.66;100234.56;5033619;28;45269;-61
2022/12/23 07:14:33;;;;;;;;;0.67;0.33;;;;;15.09;79.33;100239.06;5051575;28;45203;-63
2022/12/23 07:16:59;;;;;;;;;3.00;2.67;;;;;15.08;79.37;100235.47;5049439;28;46796;-62
2022/12/23 07:19:24;;;;;;;;;3.67;2.33;;;;;15.16;79.83;100234.56;5049250;28;45137;-63
2022/12/23 07:21:49;;;;;;;;;3.00;1.00;;;;;15.14;79.25;100221.09;5050026;28;45013;-63
2022/12/23 07:24:15;;;;;;;;;1.00;0.33;;;;;15.16;79.30;100226.50;5047265;28;45187;-62
2022/12/23 07:26:40;;;;;;;;;1.33;0.00;;;;;15.16;78.89;100224.69;5049162;28;45836;-63
2022/12/23 07:29:06;;;;;;;;;1.00;1.00;;;;;15.21;78.85;100233.69;5051333;28;48305;-63
2022/12/23 07:31:31;;;;;;;;;4.33;3.67;;;;;15.15;78.67;100220.22;5051133;28;45169;-60
2022/12/23 07:33:57;;;;;;;;;4.00;1.67;;;;;15.19;78.71;100219.31;5049164;28;44960;-62
2022/12/23 07:36:22;;;;;;;;;4.33;3.33;;;;;15.14;78.93;100212.16;5051565;28;45497;-66
2022/12/23 07:38:50;;;;;;;;;2.67;2.67;;;;;15.14;78.86;100209.47;5051212;28;53113;-62
2022/12/23 07:41:16;;;;;;;;;5.67;3.67;;;;;15.24;79.05;100225.56;5046875;28;45263;-65
2022/12/23 07:43:41;;;;;;;;;1.00;1.00;;;;;15.16;78.71;100213.03;5049698;28;45092;-65
2022/12/23 07:46:07;;;;;;;;;0.67;0.67;;;;;15.25;78.86;100230.06;5053012;28;45140;-62
2022/12/23 07:48:33;;;;;;;;;0.67;0.67;;;;;15.26;78.70;100218.41;5054164;28;45160;-64
2022/12/23 07:51:00;;;;;;;;;1.00;1.00;;;;;15.17;78.25;100213.03;5055228;28;45089;-63
2022/12/23 07:53:25;;;;;;;;;3.33;0.00;;;;;15.22;78.63;100210.34;5048249;28;45017;-64
2022/12/23 07:55:51;;;;;;;;;0.00;0.00;;;;;15.28;78.60;100230.06;5054556;28;45345;-63
2022/12/23 07:58:17;;;;;;;;;1.00;1.00;;;;;15.18;78.92;100216.59;5048541;28;44852;-65
2022/12/23 08:00:42;;;;;;;;;1.33;1.00;;;;;15.23;78.45;100214.84;5026782;28;46061;-61
2022/12/23 08:03:10;;;;;;;;;2.00;2.00;;;;;15.14;78.59;100190.63;5053256;28;45008;-63
2022/12/23 08:05:35;;;;;;;;;0.00;0.00;;;;;15.24;78.41;100206.72;5043309;28;45559;-63
2022/12/23 08:08:01;;;;;;;;;0.00;0.00;;;;;15.29;78.10;100218.41;5050387;28;45389;-60
2022/12/23 08:10:26;;;;;;;;;0.00;0.00;;;;;15.28;78.48;100219.31;5047860;28;45164;-62
2022/12/23 08:12:52;;;;;;;;;0.00;0.00;;;;;15.11;78.46;100178.06;5041815;28;45078;-61
2022/12/23 08:15:17;;;;;;;;;2.33;1.00;;;;;15.32;78.19;100222.00;5053493;28;45553;-60
2022/12/23 08:17:43;;;;;;;;;1.00;0.00;;;;;15.29;78.53;100218.41;5034277;28;45569;-60
2022/12/23 08:20:08;;;;;;;;;3.00;2.00;;;;;15.27;78.37;100209.44;5052130;28;45424;-60
2022/12/23 08:22:35;;;;;;;;;3.00;1.00;;;;;15.22;78.40;100186.13;5051692;28;45716;-60
2022/12/23 08:25:00;;;;;;;;;0.00;0.00;;;;;15.29;78.45;100193.28;5049180;28;59757;-61
2022/12/23 08:27:26;;;;;;;;;2.00;0.00;;;;;15.32;78.20;100190.59;5050174;28;45461;-62
2022/12/23 08:29:51;;;;;;;;;0.00;0.00;;;;;15.30;77.85;100190.59;5047406;28;45253;-62
2022/12/23 08:32:17;;;;;;;;;0.00;0.00;;;;;15.14;78.11;100167.28;5024222;28;45640;-61
2022/12/23 08:34:42;;;;;;;;;1.33;0.00;;;;;15.30;77.96;100197.78;5036045;28;47694;-64
2022/12/23 08:37:08;;;;;;;;;0.00;0.00;;;;;15.27;78.02;100179.81;5035880;28;45526;-64
2022/12/23 08:39:34;;;;;;;;;4.67;3.00;;;;;15.27;78.00;100179.81;5028992;28;45412;-63
2022/12/23 08:41:59;;;;;;;;;1.00;1.00;;;;;15.32;78.60;100195.09;5017397;28;45603;-64
2022/12/23 08:44:27;;;;;;;;;1.33;1.33;;;;;15.27;78.72;100182.50;5029947;28;49420;-62
2022/12/23 08:46:56;;;;;;;;;0.67;0.67;;;;;15.33;78.32;100183.41;5033844;28;45481;-63
2022/12/23 08:49:21;;;;;;;;;0.00;0.00;;;;;15.25;78.33;100161.91;5029230;28;45414;-62
2022/12/23 08:51:48;;;;;;;;;2.00;0.67;;;;;15.18;78.22;100149.34;5032579;28;45656;-64
2022/12/23 08:54:14;;;;;;;;;0.67;0.67;;;;;15.13;78.19;100138.63;5036878;28;45514;-63
2022/12/23 08:56:40;;;;;;;;;1.00;1.00;;;;;15.27;78.26;100146.63;5044772;28;45288;-65
2022/12/23 08:59:06;;;;;;;;;4.00;2.00;;;;;15.37;78.39;100147.50;5025546;28;45449;-65
2022/12/23 09:01:33;;;;;;;;;0.67;0.67;;;;;15.38;78.16;100154.69;5029289;28;45465;-62
2022/12/23 09:04:02;;;;;;;;;1.00;1.00;;;;;15.35;78.37;100139.44;5028583;28;46953;-65
2022/12/23 09:06:30;;;;;;;;;0.67;0.33;;;;;15.34;78.35;100126.88;5030430;28;45438;-63
2022/12/23 09:08:57;;;;;;;;;3.00;2.00;;;;;15.38;78.19;100115.22;5031029;28;45387;-66
2022/12/23 09:11:25;;;;;;;;;1.00;1.00;;;;;15.38;77.87;100090.97;5035240;28;45876;-63
2022/12/23 09:13:50;;;;;;;;;0.00;0.00;;;;;15.32;77.85;100065.88;5030642;28;45645;-66
2022/12/23 09:16:17;;;;;;;;;1.33;0.67;;;;;15.33;77.89;100073.97;5032365;28;45340;-65
2022/12/23 09:18:42;;;;;;;;;0.00;0.00;;;;;15.29;77.67;100073.09;5027968;28;45522;-66
2022/12/23 09:21:12;;;;;;;;;0.67;0.67;;;;;15.33;78.13;100071.28;5029371;28;45324;-67
2022/12/23 09:23:38;;;;;;;;;1.00;1.00;;;;;15.39;77.88;100097.25;5034675;28;45648;-66
2022/12/23 09:26:04;;;;;;;;;0.67;0.00;;;;;15.36;77.65;100106.25;5009825;28;45428;-71
2022/12/23 09:28:30;;;;;;;;;0.67;0.67;;;;;15.39;78.46;100114.31;5035730;28;45729;-65
2022/12/23 09:30:55;;;;;;;;;2.00;2.00;;;;;15.28;77.94;100097.31;5030422;28;46364;-66
2022/12/23 09:33:20;;;;;;;;;2.67;2.00;;;;;15.29;77.80;100101.78;5017741;28;47965;-66
2022/12/23 09:35:46;;;;;;;;;0.00;0.00;;;;;15.43;77.99;100125.97;5009929;28;46844;-64
2022/12/23 09:38:11;;;;;;;;;3.00;1.67;;;;;15.40;77.65;100123.28;5033324;28;45363;-63
2022/12/23 09:40:39;;;;;;;;;1.67;1.67;;;;;15.44;78.04;100131.34;5034751;28;45566;-62
2022/12/23 09:43:35;;;;;;;;;3.00;0.00;;;;;15.49;77.75;100160.91;5034131;28;46106;-63
2022/12/23 09:46:22;;;;;;;;;1.67;1.67;;;;;15.47;77.71;100152.84;5033318;28;45888;-64
2022/12/23 09:49:01;;;;;;;;;2.00;2.00;;;;;15.54;77.69;100151.06;5028176;28;45453;-68
2022/12/23 09:51:28;;;;;;;;;1.00;1.00;;;;;15.54;77.82;100145.69;5033229;28;45602;-68
2022/12/23 09:54:05;;;;;;;;;2.67;0.67;;;;;15.45;77.46;100133.13;5036533;28;45456;-68
2022/12/23 09:56:44;;;;;;;;;0.00;0.00;;;;;15.50;77.65;100130.41;5037752;28;45524;-65
2022/12/23 09:59:15;;;;;;;;;0.33;0.33;;;;;15.58;77.31;100150.13;5042130;28;45265;-63
2022/12/23 10:01:51;;;;;;;;;0.00;0.00;;;;;15.58;77.41;100143.84;5045682;28;45376;-64
2022/12/23 10:04:22;;;;;;;;;0.67;0.00;;;;;15.58;77.48;100158.22;5050315;28;45363;-64
2022/12/23 10:07:02;;;;;;;;;1.67;1.00;;;;;15.60;76.86;100144.75;5045761;28;44943;-62
2022/12/23 10:09:35;;;;;;;;;0.67;0.00;;;;;15.60;77.10;100140.25;5042952;28;45186;-63
2022/12/23 10:12:17;;;;;;;;;3.33;1.67;;;;;15.58;76.89;100128.59;5048237;28;46067;-64
2022/12/23 10:14:47;;;;;;;;;2.67;0.67;;;;;15.60;76.78;100132.16;5039468;28;46334;-64
2022/12/23 10:17:24;;;;;;;;;2.00;1.33;;;;;15.60;76.79;100109.75;5034326;28;45453;-63
2022/12/23 10:19:52;;;;;;;;;0.67;0.67;;;;;15.69;76.79;100115.09;5028572;28;45450;-64
2022/12/23 10:22:37;;;;;;;;;1.00;1.00;;;;;15.79;76.25;100122.25;5033976;28;45443;-64
2022/12/23 10:25:14;;;;;;;;;0.67;0.67;;;;;15.74;76.17;100107.88;5030092;28;45663;-64
2022/12/23 10:27:42;;;;;;;;;1.67;0.00;;;;;15.83;76.66;100124.00;5034112;28;46168;-64
2022/12/23 10:30:22;;;;;;;;;0.00;0.00;;;;;15.78;76.47;100128.53;5034060;28;45589;-62
2022/12/23 10:33:08;;;;;;;;;0.00;0.00;;;;;15.64;76.89;100095.34;5032268;28;46063;-64
2022/12/23 10:35:45;;;;;;;;;1.00;0.33;;;;;15.83;76.96;100133.91;5033585;28;46682;-65
2022/12/23 10:38:25;;;;;;;;;3.33;3.33;;;;;15.68;77.56;100098.94;5029442;28;45514;-64
2022/12/23 10:40:59;;;;;;;;;0.67;0.00;;;;;15.78;77.41;100125.84;5030223;28;45431;-67
2022/12/23 10:43:40;;;;;;;;;0.00;0.00;;;;;15.75;78.46;100135.69;5033187;28;45396;-63
2022/12/23 10:46:26;;;;;;;;;0.67;0.67;;;;;15.75;78.19;100136.59;5031825;28;46699;-66
2022/12/23 10:49:03;;;;;;;;;1.00;1.00;;;;;15.71;78.34;100137.53;5031210;28;45817;-64
2022/12/23 10:51:43;;;;;;;;;1.33;1.33;;;;;15.65;78.33;100113.31;5015935;28;45574;-64
2022/12/23 10:54:13;;;;;;;;;8.00;5.33;;;;;15.66;78.80;100096.25;5024572;28;45546;-64
2022/12/23 10:56:39;;;;;;;;;0.33;0.33;;;;;15.75;78.50;100106.06;5032982;28;45835;-66
2022/12/23 10:59:06;;;;;;;;;2.00;2.00;;;;;15.82;78.54;100119.53;5014611;28;45550;-64
2022/12/23 11:01:32;;;;;;;;;7.00;4.67;;;;;15.79;78.29;100098.00;5030835;28;45480;-64
2022/12/23 11:04:12;;;;;;;;;3.33;3.33;;;;;15.44;77.36;100023.66;5028292;28;45400;-64
2022/12/23 11:06:41;;;;;;;;;3.33;3.00;;;;;15.84;77.61;100098.00;5023495;28;45491;-66
2022/12/23 11:09:15;;;;;;;;;4.67;2.67;;;;;15.93;77.39;100123.97;5028980;28;45456;-66
2022/12/23 11:11:56;;;;;;;;;0.67;0.67;;;;;15.95;76.68;100122.16;5030146;28;45638;-64
2022/12/23 11:14:48;;;;;;;;;0.00;0.00;;;;;15.97;76.30;100117.66;5028079;28;45506;-66
2022/12/23 11:17:28;;;;;;;;;1.00;1.00;;;;;15.96;75.90;100130.22;5033292;28;46367;-65
2022/12/23 11:20:09;;;;;;;;;2.67;0.67;;;;;15.98;75.60;100139.19;5024727;28;45552;-63
2022/12/23 11:22:35;;;;;;;;;0.00;0.00;;;;;15.91;75.85;100128.47;5033135;28;45347;-64
2022/12/23 11:25:26;;;;;;;;;0.00;0.00;;;;;16.01;75.61;100141.88;5031785;28;45473;-65
2022/12/23 11:27:56;;;;;;;;;0.67;0.00;;;;;16.02;75.55;100138.28;5014781;28;47262;-64
2022/12/23 11:30:22;;;;;;;;;0.67;0.67;;;;;16.03;75.37;100150.84;5025418;28;45529;-64
2022/12/23 11:32:49;;;;;;;;;2.00;1.33;;;;;16.02;74.70;100143.69;5032793;28;45553;-63
2022/12/23 11:35:27;;;;;;;;;0.67;0.67;;;;;16.05;74.73;100129.28;5032671;28;45265;-64
2022/12/23 11:37:54;;;;;;;;;1.33;0.33;;;;;16.01;74.78;100116.75;5023336;28;45422;-66
2022/12/23 11:40:25;;;;;;;;;3.00;2.00;;;;;16.14;74.34;100134.63;5029444;28;45481;-64
2022/12/23 11:43:00;;;;;;;;;0.00;0.00;;;;;16.07;74.27;100119.41;5025737;28;45530;-65
2022/12/23 11:45:28;;;;;;;;;2.00;1.67;;;;;16.23;73.90;100139.03;5032117;28;45876;-63
2022/12/23 11:47:55;;;;;;;;;3.33;1.67;;;;;16.11;73.60;100106.81;5033299;28;46704;-64
2022/12/23 11:50:26;;;;;;;;;1.67;1.67;;;;;16.28;73.56;100142.59;5026617;28;45615;-65
2022/12/23 11:52:55;;;;;;;;;3.00;1.67;;;;;16.17;73.30;100088.78;5032539;28;45364;-67
2022/12/23 11:55:31;;;;;;;;;2.33;1.00;;;;;16.32;72.81;100120.13;5028133;28;45657;-63
2022/12/23 11:57:59;;;;;;;;;0.67;0.67;;;;;15.75;72.56;100004.63;5028299;28;46420;-63
2022/12/23 12:00:29;;;;;;;;;0.67;0.67;;;;;16.45;72.17;100122.72;5016588;28;45401;-67